createdAt,value
2022-10-02T00:01:31.084Z,86.65
2022-10-02T00:03:38.522Z,86.60
2022-10-02T00:05:45.715Z,86.92
2022-10-02T00:07:54.152Z,86.87
2022-10-02T00:10:01.951Z,86.66
2022-10-02T00:12:08.776Z,87.00
2022-10-02T00:14:16.117Z,86.28
2022-10-02T00:16:28.921Z,86.74
2022-10-02T00:18:35.678Z,87.19
2022-10-02T00:20:46.876Z,87.86
2022-10-02T00:22:55.499Z,88.02
2022-10-02T00:25:05.857Z,87.54
2022-10-02T00:27:28.522Z,87.86
2022-10-02T00:29:45.314Z,87.49
2022-10-02T00:31:57.775Z,87.84
2022-10-02T00:34:19.785Z,88.01
2022-10-02T00:36:37.222Z,87.65
2022-10-02T00:38:51.980Z,87.88
2022-10-02T00:41:17.786Z,88.22
2022-10-02T00:43:33.582Z,88.04
2022-10-02T00:45:51.079Z,88.25
2022-10-02T00:48:04.305Z,89.05
2022-10-02T00:50:27.755Z,89.03
2022-10-02T00:52:45.587Z,88.87
2022-10-02T00:55:16.464Z,89.41
2022-10-02T00:57:29.091Z,89.77
2022-10-02T00:59:50.218Z,89.60
2022-10-02T01:01:59.762Z,89.67
2022-10-02T01:04:09.835Z,90.42
2022-10-02T01:06:13.638Z,90.56
2022-10-02T01:08:17.818Z,90.13
2022-10-02T01:10:22.915Z,90.40
2022-10-02T01:12:26.320Z,89.97
2022-10-02T01:14:36.095Z,89.70
2022-10-02T01:16:42.039Z,90.07
2022-10-02T01:18:47.999Z,90.09
2022-10-02T01:20:55.479Z,90.10
2022-10-02T01:23:06.671Z,89.79
2022-10-02T01:25:11.362Z,90.15
2022-10-02T01:27:14.862Z,89.72
2022-10-02T01:29:18.334Z,89.13
2022-10-02T01:31:24.499Z,89.47
2022-10-02T01:33:28.057Z,89.45
2022-10-02T01:35:34.840Z,89.24
2022-10-02T01:37:42.108Z,88.73
2022-10-02T01:39:46.181Z,88.93
2022-10-02T01:41:50.884Z,88.94
2022-10-02T01:43:58.146Z,89.18
2022-10-02T01:46:19.712Z,89.55
2022-10-02T01:48:36.272Z,90.37
2022-10-02T01:50:49.485Z,90.20
2022-10-02T01:53:03.804Z,89.62
2022-10-02T01:55:26.209Z,89.28
2022-10-02T01:57:46.614Z,89.73
2022-10-02T02:00:03.379Z,90.23
2022-10-02T02:02:24.060Z,90.14
2022-10-02T02:04:32.186Z,89.70
2022-10-02T02:06:47.064Z,90.04
2022-10-02T02:09:02.187Z,89.97
2022-10-02T02:11:12.118Z,90.45
2022-10-02T02:13:22.460Z,90.52
2022-10-02T02:15:29.980Z,90.88
2022-10-02T02:17:42.903Z,90.66
2022-10-02T02:19:50.280Z,90.32
2022-10-02T02:21:59.748Z,90.42
2022-10-02T02:24:06.842Z,90.08
2022-10-02T02:26:13.063Z,90.01
2022-10-02T02:28:22.153Z,90.04
2022-10-02T02:30:26.319Z,90.14
2022-10-02T02:32:35.932Z,89.72
2022-10-02T02:34:43.835Z,90.09
2022-10-02T02:36:53.402Z,90.15
2022-10-02T02:39:02.344Z,90.36
2022-10-02T02:41:10.137Z,89.68
2022-10-02T02:43:20.026Z,89.91
2022-10-02T02:45:28.288Z,90.07
2022-10-02T02:47:40.169Z,90.14
2022-10-02T02:49:52.046Z,89.94
2022-10-02T02:51:57.948Z,89.97
2022-10-02T02:54:07.028Z,90.09
2022-10-02T02:56:15.329Z,90.01
2022-10-02T02:58:25.215Z,90.15
2022-10-02T03:00:28.690Z,89.79
2022-10-02T03:02:32.949Z,89.88
2022-10-02T03:04:36.326Z,89.98
2022-10-02T03:06:42.089Z,89.82
2022-10-02T03:08:48.257Z,89.87
2022-10-02T03:11:05.434Z,89.68
2022-10-02T03:13:20.054Z,90.06
2022-10-02T03:15:31.149Z,89.87
2022-10-02T03:17:46.894Z,89.69
2022-10-02T03:19:55.710Z,89.62
2022-10-02T03:22:08.082Z,89.42
2022-10-02T03:24:19.174Z,89.26
2022-10-02T03:26:31.161Z,89.37
2022-10-02T03:28:54.932Z,89.25
2022-10-02T03:31:01.572Z,89.42
2022-10-02T03:33:06.442Z,89.46
2022-10-02T03:35:13.180Z,89.58
2022-10-02T03:37:18.237Z,89.76
2022-10-02T03:39:26.143Z,89.30
2022-10-02T03:41:29.689Z,89.68
2022-10-02T03:43:32.955Z,89.52
2022-10-02T03:45:52.175Z,90.06
2022-10-02T03:47:57.175Z,90.17
2022-10-02T03:50:00.481Z,90.36
2022-10-02T03:52:03.912Z,90.29
2022-10-02T03:54:14.053Z,90.56
2022-10-02T03:56:29.276Z,90.40
2022-10-02T03:58:33.932Z,90.27
2022-10-02T04:00:40.049Z,91.06
2022-10-02T04:02:48.032Z,90.97
2022-10-02T04:04:57.289Z,90.79
2022-10-02T04:07:04.592Z,90.37
2022-10-02T04:09:13.473Z,90.25
2022-10-02T04:11:21.484Z,90.57
2022-10-02T04:13:31.063Z,90.25
2022-10-02T04:15:52.533Z,89.89
2022-10-02T04:18:01.732Z,89.98
2022-10-02T04:20:11.397Z,90.00
2022-10-02T04:22:22.087Z,90.31
2022-10-02T04:24:32.033Z,90.86
2022-10-02T04:26:39.554Z,91.53
2022-10-02T04:28:47.170Z,91.75
2022-10-02T04:30:53.382Z,91.21
2022-10-02T04:32:59.240Z,92.02
2022-10-02T04:35:02.833Z,92.30
2022-10-02T04:37:23.558Z,92.42
2022-10-02T04:39:46.471Z,92.62
2022-10-02T04:42:04.826Z,93.56
2022-10-02T04:44:21.609Z,95.11
2022-10-02T04:46:49.547Z,95.35
2022-10-02T04:49:17.932Z,95.57
2022-10-02T04:51:32.075Z,96.03
2022-10-02T04:54:02.422Z,96.28
2022-10-02T04:56:31.404Z,96.10
2022-10-02T04:58:55.760Z,96.49
2022-10-02T05:01:08.086Z,96.53
2022-10-02T05:03:27.921Z,96.13
2022-10-02T05:05:54.976Z,96.56
2022-10-02T05:08:15.618Z,97.36
2022-10-02T05:10:35.067Z,96.77
2022-10-02T05:12:50.408Z,96.69
2022-10-02T05:15:16.133Z,97.05
2022-10-02T05:17:37.489Z,96.99
2022-10-02T05:19:59.725Z,96.95
2022-10-02T05:22:24.125Z,97.08
2022-10-02T05:24:45.038Z,96.94
2022-10-02T05:27:15.336Z,96.77
2022-10-02T05:29:32.688Z,96.76
2022-10-02T05:31:46.453Z,96.35
2022-10-02T05:34:01.988Z,96.55
2022-10-02T05:36:22.464Z,96.41
2022-10-02T05:38:43.295Z,96.07
2022-10-02T05:40:53.887Z,95.89
2022-10-02T05:43:05.201Z,96.12
2022-10-02T05:45:23.741Z,95.61
2022-10-02T05:47:30.347Z,95.42
2022-10-02T05:49:36.939Z,95.38
2022-10-02T05:51:47.321Z,95.44
2022-10-02T05:53:56.987Z,95.21
2022-10-02T05:56:06.351Z,95.02
2022-10-02T05:58:16.329Z,95.13
2022-10-02T06:00:29.545Z,95.52
2022-10-02T06:02:41.559Z,95.02
2022-10-02T06:04:54.155Z,95.45
2022-10-02T06:07:02.179Z,95.28
2022-10-02T06:09:18.942Z,94.99
2022-10-02T06:11:31.151Z,94.96
2022-10-02T06:13:41.867Z,94.73
2022-10-02T06:15:52.162Z,94.76
2022-10-02T06:18:00.937Z,94.33
2022-10-02T06:20:13.607Z,94.11
2022-10-02T06:22:20.895Z,93.79
2022-10-02T06:24:31.876Z,93.98
2022-10-02T06:26:43.184Z,93.80
2022-10-02T06:28:54.555Z,93.53
2022-10-02T06:31:03.046Z,93.19
2022-10-02T06:33:14.075Z,93.41
2022-10-02T06:35:28.951Z,93.26
2022-10-02T06:37:44.199Z,92.78
2022-10-02T06:40:04.832Z,92.75
2022-10-02T06:42:20.893Z,92.49
2022-10-02T06:44:30.603Z,91.98
2022-10-02T06:46:41.121Z,91.83
2022-10-02T06:48:52.991Z,91.26
2022-10-02T06:51:03.586Z,91.23
2022-10-02T06:53:26.517Z,92.09
2022-10-02T06:55:41.471Z,91.87
2022-10-02T06:57:59.410Z,91.86
2022-10-02T07:00:13.589Z,91.98
2022-10-02T07:02:30.877Z,92.54
2022-10-02T07:04:58.329Z,92.34
2022-10-02T07:07:15.695Z,92.69
2022-10-02T07:09:36.481Z,92.60
2022-10-02T07:11:48.901Z,92.71
2022-10-02T07:14:04.871Z,92.19
2022-10-02T07:16:41.623Z,91.81
2022-10-02T07:18:58.689Z,91.10
2022-10-02T07:21:11.696Z,91.69
2022-10-02T07:23:35.072Z,92.13
2022-10-02T07:25:48.657Z,91.22
2022-10-02T07:28:06.291Z,91.35
2022-10-02T07:30:12.631Z,90.73
2022-10-02T07:32:47.399Z,90.49
2022-10-02T07:34:59.046Z,89.69
2022-10-02T07:37:13.807Z,89.81
2022-10-02T07:39:28.344Z,89.52
2022-10-02T07:41:48.468Z,89.74
2022-10-02T07:44:00.087Z,88.62
2022-10-02T07:46:14.828Z,88.56
2022-10-02T07:48:43.142Z,87.96
2022-10-02T07:51:00.763Z,88.17
2022-10-02T07:53:12.291Z,87.44
2022-10-02T07:55:18.519Z,87.19
2022-10-02T07:57:31.512Z,87.22
2022-10-02T07:59:36.761Z,86.18
2022-10-02T08:01:42.567Z,86.71
2022-10-02T08:03:53.200Z,86.52
2022-10-02T08:05:57.517Z,86.49
2022-10-02T08:08:05.477Z,85.98
2022-10-02T08:10:11.943Z,86.34
2022-10-02T08:12:28.121Z,86.92
2022-10-02T08:14:38.306Z,86.62
2022-10-02T08:16:47.730Z,86.37
2022-10-02T08:18:57.225Z,85.76
2022-10-02T08:21:02.083Z,86.09
2022-10-02T08:23:13.541Z,86.25
2022-10-02T08:25:25.077Z,85.83
2022-10-02T08:27:36.064Z,85.74
2022-10-02T08:29:45.063Z,86.27
2022-10-02T08:31:52.055Z,85.88
2022-10-02T08:33:57.487Z,86.21
2022-10-02T08:36:18.882Z,86.37
2022-10-02T08:38:41.374Z,87.04
2022-10-02T08:41:18.361Z,87.01
2022-10-02T08:44:00.346Z,87.20
2022-10-02T08:46:32.660Z,87.81
2022-10-02T08:49:15.152Z,87.28
2022-10-02T08:51:53.985Z,86.90
2022-10-02T08:54:25.969Z,86.18
2022-10-02T08:56:40.954Z,86.56
2022-10-02T08:59:09.997Z,86.54
2022-10-02T09:01:35.124Z,85.93
2022-10-02T09:04:17.789Z,85.63
2022-10-02T09:06:56.991Z,85.07
2022-10-02T09:09:36.247Z,85.28
2022-10-02T09:12:20.445Z,85.39
2022-10-02T09:14:43.898Z,85.78
2022-10-02T09:17:10.998Z,85.40
2022-10-02T09:19:31.946Z,85.78
2022-10-02T09:21:52.580Z,85.89
2022-10-02T09:24:32.283Z,86.31
2022-10-02T09:26:59.700Z,85.79
2022-10-02T09:29:48.698Z,86.28
2022-10-02T09:32:43.417Z,85.65
2022-10-02T09:35:03.950Z,85.46
2022-10-02T09:37:28.591Z,85.65
2022-10-02T09:40:02.855Z,85.25
2022-10-02T09:42:29.289Z,85.32
2022-10-02T09:45:01.449Z,85.21
2022-10-02T09:47:27.082Z,84.70
2022-10-02T09:49:54.794Z,84.64
2022-10-02T09:52:46.962Z,85.17
2022-10-02T09:55:27.496Z,85.49
2022-10-02T09:58:09.319Z,85.97
2022-10-02T10:00:30.576Z,86.10
2022-10-02T10:03:03.624Z,85.70
2022-10-02T10:05:52.001Z,85.97
2022-10-02T10:08:25.629Z,85.53
2022-10-02T10:10:57.045Z,85.09
2022-10-02T10:13:43.521Z,84.53
2022-10-02T10:16:30.227Z,84.30
2022-10-02T10:19:03.650Z,83.66
2022-10-02T10:21:41.310Z,83.99
2022-10-02T10:24:20.600Z,84.00
2022-10-02T10:26:51.597Z,83.60
2022-10-02T10:29:33.081Z,82.68
2022-10-02T10:32:06.133Z,82.16
2022-10-02T10:34:39.759Z,81.92
2022-10-02T10:37:13.001Z,80.81
2022-10-02T10:39:47.349Z,80.37
2022-10-02T10:42:12.827Z,79.66
2022-10-02T10:44:56.725Z,79.56
2022-10-02T10:47:35.816Z,79.36
2022-10-02T10:50:04.490Z,79.65
2022-10-02T10:52:17.646Z,79.83
2022-10-02T10:54:48.519Z,79.55
2022-10-02T10:56:55.571Z,79.55
2022-10-02T10:59:25.310Z,79.62
2022-10-02T11:01:42.401Z,79.74
2022-10-02T11:04:02.185Z,79.68
2022-10-02T11:06:31.076Z,79.83
2022-10-02T11:09:05.456Z,79.68
2022-10-02T11:11:20.875Z,78.72
2022-10-02T11:13:50.179Z,79.18
2022-10-02T11:16:35.434Z,77.95
2022-10-02T11:19:20.638Z,78.73
2022-10-02T11:22:01.374Z,78.79
2022-10-02T11:24:18.422Z,78.86
2022-10-02T11:26:44.712Z,78.11
2022-10-02T11:29:00.971Z,78.22
2022-10-02T11:31:24.305Z,78.34
2022-10-02T11:33:57.561Z,78.26
2022-10-02T11:36:41.665Z,77.61
2022-10-02T11:39:06.080Z,77.47
2022-10-02T11:41:22.276Z,76.75
2022-10-02T11:43:45.521Z,75.46
2022-10-02T11:46:21.567Z,75.10
2022-10-02T11:48:47.705Z,75.95
2022-10-02T11:51:17.665Z,75.69
2022-10-02T11:53:35.182Z,75.97
2022-10-02T11:55:58.042Z,76.43
2022-10-02T11:58:14.418Z,76.62
2022-10-02T12:00:56.862Z,76.06
2022-10-02T12:03:04.981Z,75.19
2022-10-02T12:05:22.326Z,73.31
2022-10-02T12:07:40.100Z,73.59
2022-10-02T12:09:58.989Z,73.05
2022-10-02T12:12:17.020Z,73.06
2022-10-02T12:14:31.506Z,72.65
2022-10-02T12:16:53.492Z,72.57
2022-10-02T12:19:12.254Z,72.60
2022-10-02T12:21:48.464Z,72.21
2022-10-02T12:24:14.413Z,72.18
2022-10-02T12:26:58.859Z,71.68
2022-10-02T12:29:11.229Z,72.45
2022-10-02T12:31:25.011Z,72.43
2022-10-02T12:33:41.226Z,72.48
2022-10-02T12:36:09.976Z,72.39
2022-10-02T12:38:28.274Z,72.28
2022-10-02T12:40:41.772Z,71.37
2022-10-02T12:43:07.723Z,70.17
2022-10-02T12:45:47.365Z,69.04
2022-10-02T12:48:21.439Z,67.32
2022-10-02T12:50:41.919Z,68.16
2022-10-02T12:53:09.619Z,68.07
2022-10-02T12:55:58.212Z,68.26
2022-10-02T12:58:11.740Z,68.85
2022-10-02T13:00:18.656Z,69.17
2022-10-02T13:03:05.828Z,68.97
2022-10-02T13:05:32.021Z,67.98
2022-10-02T13:08:15.967Z,66.39
2022-10-02T13:10:22.186Z,64.41
2022-10-02T13:12:46.037Z,63.25
2022-10-02T13:15:33.708Z,60.68
2022-10-02T13:17:46.234Z,60.98
2022-10-02T13:20:02.121Z,60.55
2022-10-02T13:22:13.731Z,61.23
2022-10-02T13:24:37.261Z,62.38
2022-10-02T13:26:49.854Z,62.92
2022-10-02T13:29:07.991Z,63.17
2022-10-02T13:31:20.670Z,63.50
2022-10-02T13:33:43.046Z,63.89
2022-10-02T13:35:58.634Z,64.51
2022-10-02T13:38:14.249Z,64.11
2022-10-02T13:40:24.891Z,64.85
2022-10-02T13:42:41.086Z,64.88
2022-10-02T13:44:53.049Z,64.73
2022-10-02T13:47:22.495Z,64.86
2022-10-02T13:49:41.736Z,64.82
2022-10-02T13:51:53.647Z,64.28
2022-10-02T13:54:36.757Z,63.19
2022-10-02T13:56:51.108Z,63.34
2022-10-02T13:59:11.232Z,62.68
2022-10-02T14:01:25.233Z,61.00
2022-10-02T14:03:42.476Z,60.37
2022-10-02T14:05:57.678Z,60.41
2022-10-02T14:08:13.774Z,60.74
2022-10-02T14:10:29.327Z,60.80
2022-10-02T14:12:45.084Z,60.83
2022-10-02T14:15:04.316Z,61.21
2022-10-02T14:17:22.412Z,60.92
2022-10-02T14:19:44.181Z,61.09
2022-10-02T14:21:57.620Z,61.30
2022-10-02T14:24:48.521Z,61.07
2022-10-02T14:27:04.117Z,61.64
2022-10-02T14:29:17.271Z,61.79
2022-10-02T14:31:41.490Z,63.30
2022-10-02T14:34:08.884Z,65.83
2022-10-02T14:36:20.044Z,64.68
2022-10-02T14:38:36.400Z,64.74
2022-10-02T14:40:50.698Z,65.59
2022-10-02T14:43:14.628Z,70.33
2022-10-02T14:45:38.424Z,71.55
2022-10-02T14:47:57.358Z,71.94
2022-10-02T14:50:18.111Z,72.21
2022-10-02T14:52:41.793Z,71.82
2022-10-02T14:55:31.147Z,70.55
2022-10-02T14:57:46.201Z,70.46
2022-10-02T15:00:20.779Z,71.27
2022-10-02T15:02:40.657Z,71.64
2022-10-02T15:04:53.898Z,72.38
2022-10-02T15:07:08.823Z,72.83
2022-10-02T15:09:17.113Z,72.14
2022-10-02T15:11:27.155Z,72.17
2022-10-02T15:13:38.548Z,71.76
2022-10-02T15:15:47.808Z,71.73
2022-10-02T15:18:00.382Z,72.23
2022-10-02T15:20:20.606Z,71.97
2022-10-02T15:22:30.020Z,71.71
2022-10-02T15:24:35.167Z,71.24
2022-10-02T15:26:55.348Z,71.68
2022-10-02T15:29:12.518Z,71.44
2022-10-02T15:31:23.683Z,71.78
2022-10-02T15:33:35.088Z,70.32
2022-10-02T15:35:55.143Z,69.59
2022-10-02T15:38:42.504Z,69.66
2022-10-02T15:40:56.254Z,68.92
2022-10-02T15:43:22.069Z,68.40
2022-10-02T15:45:40.375Z,68.55
2022-10-02T15:48:12.530Z,69.55
2022-10-02T15:50:27.957Z,69.85
2022-10-02T15:52:41.568Z,70.63
2022-10-02T15:54:57.472Z,71.52
2022-10-02T15:57:25.947Z,71.78
2022-10-02T15:59:45.899Z,72.51
2022-10-02T16:02:00.580Z,73.07
2022-10-02T16:04:14.671Z,73.64
2022-10-02T16:06:32.791Z,73.47
2022-10-02T16:08:58.919Z,74.03
2022-10-02T16:11:38.706Z,74.11
2022-10-02T16:13:52.385Z,74.24
2022-10-02T16:16:06.256Z,74.95
2022-10-02T16:18:24.976Z,75.37
2022-10-02T16:20:38.362Z,76.03
2022-10-02T16:22:57.282Z,76.16
2022-10-02T16:25:15.420Z,76.34
2022-10-02T16:27:46.667Z,77.49
2022-10-02T16:30:05.360Z,77.36
2022-10-02T16:32:21.818Z,77.45
2022-10-02T16:34:44.270Z,77.71
2022-10-02T16:36:53.176Z,78.03
2022-10-02T16:39:05.652Z,78.11
2022-10-02T16:41:21.006Z,78.84
2022-10-02T16:43:49.075Z,78.60
2022-10-02T16:46:11.472Z,78.82
2022-10-02T16:48:22.474Z,79.00
2022-10-02T16:50:33.048Z,78.70
2022-10-02T16:52:46.519Z,79.63
2022-10-02T16:54:56.176Z,79.78
2022-10-02T16:57:05.819Z,79.86
2022-10-02T16:59:14.751Z,79.95
2022-10-02T17:01:27.215Z,80.16
2022-10-02T17:03:37.088Z,80.41
2022-10-02T17:05:49.616Z,80.60
2022-10-02T17:07:59.990Z,80.44
2022-10-02T17:10:19.158Z,80.77
2022-10-02T17:12:28.719Z,81.59
2022-10-02T17:14:44.884Z,81.52
2022-10-02T17:16:56.399Z,81.20
2022-10-02T17:19:04.872Z,81.12
2022-10-02T17:21:15.483Z,81.09
2022-10-02T17:23:26.049Z,81.30
2022-10-02T17:25:38.799Z,81.17
2022-10-02T17:27:51.046Z,81.31
2022-10-02T17:30:03.691Z,81.16
2022-10-02T17:32:10.122Z,81.30
2022-10-02T17:34:21.242Z,81.52
2022-10-02T17:36:35.425Z,81.00
2022-10-02T17:38:53.627Z,81.22
2022-10-02T17:41:07.119Z,80.83
2022-10-02T17:43:21.269Z,81.16
2022-10-02T17:45:36.975Z,81.07
2022-10-02T17:48:10.945Z,81.60
2022-10-02T17:50:28.100Z,81.71
2022-10-02T17:52:57.744Z,81.49
2022-10-02T17:55:34.582Z,81.92
2022-10-02T17:57:54.175Z,81.70
2022-10-02T18:00:14.796Z,81.67
2022-10-02T18:02:33.584Z,81.62
2022-10-02T18:04:49.472Z,81.69
2022-10-02T18:07:09.405Z,81.58
2022-10-02T18:09:29.672Z,81.46
2022-10-02T18:11:55.881Z,81.80
2022-10-02T18:14:11.915Z,81.83
2022-10-02T18:16:38.513Z,81.55
2022-10-02T18:18:57.312Z,81.23
2022-10-02T18:21:24.210Z,81.18
2022-10-02T18:23:49.384Z,80.68
2022-10-02T18:26:06.377Z,80.00
2022-10-02T18:28:32.737Z,79.80
2022-10-02T18:30:46.163Z,79.47
2022-10-02T18:33:08.319Z,79.03
2022-10-02T18:35:32.140Z,78.36
2022-10-02T18:38:02.835Z,78.14
2022-10-02T18:40:22.127Z,78.37
2022-10-02T18:42:43.978Z,78.21
2022-10-02T18:45:03.984Z,78.29
2022-10-02T18:47:18.837Z,78.28
2022-10-02T18:49:47.795Z,78.07
2022-10-02T18:52:09.756Z,77.86
2022-10-02T18:54:23.341Z,77.47
2022-10-02T18:56:51.313Z,77.41
2022-10-02T18:59:13.703Z,77.03
2022-10-02T19:01:31.700Z,77.26
2022-10-02T19:03:49.720Z,77.03
2022-10-02T19:05:59.713Z,76.51
2022-10-02T19:08:18.711Z,76.32
2022-10-02T19:10:26.335Z,76.58
2022-10-02T19:12:32.191Z,76.24
2022-10-02T19:14:41.780Z,76.36
2022-10-02T19:17:04.320Z,76.03
2022-10-02T19:19:12.007Z,76.17
2022-10-02T19:21:19.340Z,76.25
2022-10-02T19:23:30.327Z,76.06
2022-10-02T19:25:34.684Z,75.91
2022-10-02T19:27:41.360Z,76.08
2022-10-02T19:29:49.697Z,76.38
2022-10-02T19:31:54.591Z,76.61
2022-10-02T19:34:03.112Z,76.62
2022-10-02T19:36:07.470Z,76.05
2022-10-02T19:38:14.613Z,76.54
2022-10-02T19:40:21.877Z,76.49
2022-10-02T19:42:28.533Z,76.66
2022-10-02T19:44:36.527Z,76.36
2022-10-02T19:46:43.933Z,76.34
2022-10-02T19:48:47.990Z,75.98
2022-10-02T19:50:57.416Z,75.97
2022-10-02T19:53:06.709Z,76.16
2022-10-02T19:55:22.508Z,75.99
2022-10-02T19:57:32.984Z,75.95
2022-10-02T19:59:42.981Z,75.83
2022-10-02T20:01:51.690Z,76.09
2022-10-02T20:03:57.530Z,76.87
2022-10-02T20:06:04.270Z,76.51
2022-10-02T20:08:15.836Z,76.53
2022-10-02T20:10:23.318Z,76.32
2022-10-02T20:12:32.177Z,76.67
2022-10-02T20:14:42.907Z,76.48
2022-10-02T20:17:04.119Z,76.32
2022-10-02T20:19:10.911Z,76.15
2022-10-02T20:21:19.801Z,76.46
2022-10-02T20:23:28.256Z,76.47
2022-10-02T20:25:36.959Z,75.95
2022-10-02T20:27:47.448Z,75.59
2022-10-02T20:29:59.481Z,75.23
2022-10-02T20:32:09.485Z,74.98
2022-10-02T20:34:24.569Z,75.17
2022-10-02T20:36:38.447Z,75.19
2022-10-02T20:38:48.391Z,75.20
2022-10-02T20:40:55.285Z,74.82
2022-10-02T20:43:03.987Z,74.49
2022-10-02T20:45:12.897Z,74.72
2022-10-02T20:47:40.719Z,74.44
2022-10-02T20:50:23.896Z,74.58
2022-10-02T20:53:02.756Z,74.51
2022-10-02T20:55:15.963Z,74.72
2022-10-02T20:58:00.771Z,74.97
2022-10-02T21:00:15.562Z,74.92
2022-10-02T21:02:35.167Z,74.70
2022-10-02T21:05:12.073Z,74.92
2022-10-02T21:07:43.599Z,74.89
2022-10-02T21:10:12.841Z,74.80
2022-10-02T21:12:54.454Z,74.77
2022-10-02T21:15:25.358Z,75.16
2022-10-02T21:17:56.986Z,74.82
2022-10-02T21:20:50.442Z,75.01
2022-10-02T21:23:44.687Z,74.72
2022-10-02T21:26:26.863Z,75.26
2022-10-02T21:29:33.131Z,74.93
2022-10-02T21:32:00.946Z,75.18
2022-10-02T21:34:19.758Z,75.13
2022-10-02T21:36:33.669Z,75.50
2022-10-02T21:39:11.852Z,75.52
2022-10-02T21:41:58.093Z,75.47
2022-10-02T21:44:29.389Z,75.71
2022-10-02T21:47:13.885Z,75.68
2022-10-02T21:49:47.044Z,75.79
2022-10-02T21:52:26.579Z,75.85
2022-10-02T21:55:08.246Z,75.46
2022-10-02T21:57:48.843Z,75.73
2022-10-02T22:00:12.893Z,75.85
2022-10-02T22:02:40.679Z,76.02
2022-10-02T22:05:21.022Z,76.01
2022-10-02T22:07:32.851Z,76.26
2022-10-02T22:09:47.087Z,75.91
2022-10-02T22:12:04.425Z,76.18
2022-10-02T22:14:12.025Z,76.75
2022-10-02T22:16:29.805Z,76.52
2022-10-02T22:18:45.618Z,76.84
2022-10-02T22:21:05.770Z,76.93
2022-10-02T22:23:24.858Z,76.88
2022-10-02T22:25:40.438Z,76.81
2022-10-02T22:28:03.981Z,76.82
2022-10-02T22:30:20.932Z,76.73
2022-10-02T22:33:12.303Z,76.93
2022-10-02T22:35:25.849Z,77.16
2022-10-02T22:37:50.222Z,77.16
2022-10-02T22:40:01.928Z,77.33
2022-10-02T22:42:13.275Z,77.65
2022-10-02T22:44:26.790Z,77.81
2022-10-02T22:46:41.393Z,77.86
2022-10-02T22:48:49.248Z,77.86
2022-10-02T22:50:56.739Z,77.85
2022-10-02T22:53:09.893Z,78.02
2022-10-02T22:55:19.658Z,78.28
2022-10-02T22:57:30.384Z,77.97
2022-10-02T22:59:44.148Z,77.82
2022-10-02T23:01:52.843Z,78.11
2022-10-02T23:03:59.865Z,78.11
2022-10-02T23:06:07.253Z,78.22
2022-10-02T23:08:24.318Z,77.78
2022-10-02T23:10:33.345Z,77.80
2022-10-02T23:12:41.716Z,78.23
2022-10-02T23:14:59.140Z,78.01
2022-10-02T23:17:11.705Z,77.68
2022-10-02T23:19:23.458Z,78.06
2022-10-02T23:21:37.806Z,78.35
2022-10-02T23:23:51.242Z,77.79
2022-10-02T23:26:00.187Z,77.73
2022-10-02T23:28:11.067Z,77.56
2022-10-02T23:30:20.355Z,77.66
2022-10-02T23:32:28.468Z,77.21
2022-10-02T23:34:38.196Z,77.51
2022-10-02T23:36:50.026Z,77.64
2022-10-02T23:39:00.035Z,78.40
2022-10-02T23:41:26.627Z,77.89
2022-10-02T23:43:33.646Z,78.46
2022-10-02T23:45:43.580Z,77.85
2022-10-02T23:47:58.975Z,77.99
2022-10-02T23:50:03.287Z,78.18
2022-10-02T23:52:22.787Z,78.31
2022-10-02T23:54:45.236Z,77.82
2022-10-02T23:57:10.713Z,77.42
2022-10-02T23:59:33.558Z,78.23
